Skip Navigation Links Skip Navigation Links

Current Weather

Burlington Muni, Burlington, Wis.

For information only: do not use for flight planning or navigation.
Latest weather
Observation time Thursday, November 21, 2019 4:15 PM CST
Local time Thursday, November 21, 2019 4:27 PM CST
Flight conditions Marginal Visual Meteorological Conditions
Winds
Wind direction West-Northwest (300°)
Wind speed 17 mph
Wind gusting to 24 mph
Visibility 10 mi.
Sky condition
Ceiling 1,900 ft. broken clouds
Cloud layer broken clouds 1,900 ft.
Cloud layer overcast 2,600 ft.
Temperature 46°F
Dewpoint 40°F
Altimeter 29.78 in.Hg
Derived measurements
Relative humidity 81%
Wind chill 39°F
Density altitude 176 ft.
Remarks
Fully automated report.
Automated weather observing station with precipitation discriminator.
METAR KBUU 212215Z AUTO 30015G21KT 10SM BKN019 OVC026 08/05 A2978 RMK AO2 T00760045

Settings

Location code

InnerDrive.Weather 4.0.6770.0 Release CLR 4.0.30319.42000
Copyright ©2018 Inner Drive Technology. All rights reserved. Portions Copyright ©1986-2018 David Braverman.

Find weather

Site navigation


Skip Navigation Links

Place info

Page info

PayPal - The safer, easier way to pay online!

Return home.

Copyright ©2019 Inner Drive Technology. Purveyors of fine, hand-crafted computer software. Page printed 2019-11-21T22:27:57 UTC.